Kenai, AK

4:41 AM AKST on December 26, 2014 (GMT -0900)
APRSWXNET Kenai AK US | Change Station
CLOSE
Current Station
Personal Weather Station
Location: Kenai, AK
Elevation: 82 ft
Nearby Weather Stations

Elev 82 ft 60.58 °N, 151.31 °W | Updated 45 minutes ago

Clear
Clear
34 °F
Feels Like 34 °F
N
3
Wind Variable Wind from South
Gusts 9.0 mph

Today
High -- | Low -- °F
--% Chance of Precip.
Yesterday
High -- | Low -- °F
Precip. -- in
10:13 AM 3:57 PM
Waxing Crescent, 26% visible
Pressure 29.87 in
Visibility 10.0 miles
Clouds Clear
Windchill 34 °F
Dew Point 30 °F
Humidity 86%
Rainfall 0.09 in
Snow Depth Not available.
UV 0 out of 12
Pollen Not available.
Air Quality Not available.
Flu Activity Not available.
METAR PAEN 261253Z AUTO 17011KT 10SM CLR M01/M03 A2986 RMK AO2 SLP114 T10061033 TSNO

More Conditions Fewer Conditions

Pressure 29.87 in
Visibility 10.0 miles
Clouds Clear
Windchill 34 °F
Dew Point 30 °F
Humidity 86%
Rainfall 0.09 in
Snow Depth Not available.
UV 0 out of 12
Pollen Not available.
Air Quality Not available.
Flu Activity Not available.
METAR PAEN 261253Z AUTO 17011KT 10SM CLR M01/M03 A2986 RMK AO2 SLP114 T10061033 TSNO

More Conditions Fewer Conditions

10-Day Weather Forecast

Almanac

Astronomy

Dec. 26, 2014 Rise Set
Actual Time
Civil Twilight
Nautical Twilight
Astronomical Twilight
Moon
Length of Visible Light
Length of Day
Tomorrow will be .
, % of the Moon is Illuminated

Today's Extremes

State Highs State Lows

Community

WunderPhotos

Upload Photos

1,780,593 photos uploaded!

WunderBlogs® & News

Nearby

Air Quality

  Air Quality AQ Index Pollutant
Not available.

Snow Depth

Station Depth Elevation

Earthquake Activity

City Distance Mag. Time & Date
Minimum magnitude displayed is 2.5.

Coastal Water Temperatures

Place Temperature

Nearby Weather Stations